sensor_id;sensor_type;location;lat;lon;timestamp;temperature;humidity
2945;DHT22;1482;51.398;7.128;2023-02-28T00:00:19;1.00;1.00
2945;DHT22;1482;51.398;7.128;2023-02-28T00:02:45;0.90;1.00
2945;DHT22;1482;51.398;7.128;2023-02-28T00:05:13;0.90;1.00
2945;DHT22;1482;51.398;7.128;2023-02-28T00:07:39;1.00;1.00
2945;DHT22;1482;51.398;7.128;2023-02-28T00:10:07;1.10;1.00
2945;DHT22;1482;51.398;7.128;2023-02-28T00:12:34;1.10;1.00
2945;DHT22;1482;51.398;7.128;2023-02-28T00:14:59;1.00;1.00
2945;DHT22;1482;51.398;7.128;2023-02-28T00:17:25;1.10;1.00
2945;DHT22;1482;51.398;7.128;2023-02-28T00:19:51;1.00;1.00
2945;DHT22;1482;51.398;7.128;2023-02-28T00:22:18;0.90;1.00
2945;DHT22;1482;51.398;7.128;2023-02-28T00:24:45;0.90;1.00
2945;DHT22;1482;51.398;7.128;2023-02-28T00:27:11;0.90;1.00
2945;DHT22;1482;51.398;7.128;2023-02-28T00:29:37;0.80;1.00
2945;DHT22;1482;51.398;7.128;2023-02-28T00:32:03;0.70;1.00
2945;DHT22;1482;51.398;7.128;2023-02-28T00:34:29;0.80;1.00
2945;DHT22;1482;51.398;7.128;2023-02-28T00:36:54;0.80;1.00
2945;DHT22;1482;51.398;7.128;2023-02-28T00:39:20;0.60;1.00
2945;DHT22;1482;51.398;7.128;2023-02-28T00:41:46;0.60;1.00
2945;DHT22;1482;51.398;7.128;2023-02-28T00:44:12;0.60;2.50
2945;DHT22;1482;51.398;7.128;2023-02-28T00:46:37;0.60;2.90
2945;DHT22;1482;51.398;7.128;2023-02-28T00:49:03;0.60;4.10
2945;DHT22;1482;51.398;7.128;2023-02-28T00:51:28;0.60;5.10
2945;DHT22;1482;51.398;7.128;2023-02-28T00:53:54;0.50;12.80
2945;DHT22;1482;51.398;7.128;2023-02-28T00:56:20;0.50;10.10
2945;DHT22;1482;51.398;7.128;2023-02-28T00:58:45;0.50;10.00
2945;DHT22;1482;51.398;7.128;2023-02-28T01:01:11;0.50;12.40
2945;DHT22;1482;51.398;7.128;2023-02-28T01:03:36;0.50;4.90
2945;DHT22;1482;51.398;7.128;2023-02-28T01:06:02;0.50;3.60
2945;DHT22;1482;51.398;7.128;2023-02-28T01:08:28;0.40;4.20
2945;DHT22;1482;51.398;7.128;2023-02-28T01:10:53;0.40;7.10
2945;DHT22;1482;51.398;7.128;2023-02-28T01:13:19;0.30;12.80
2945;DHT22;1482;51.398;7.128;2023-02-28T01:15:53;0.20;19.90
2945;DHT22;1482;51.398;7.128;2023-02-28T01:18:21;0.20;22.70
2945;DHT22;1482;51.398;7.128;2023-02-28T01:20:47;0.10;27.60
2945;DHT22;1482;51.398;7.128;2023-02-28T01:23:13;0.10;27.00
2945;DHT22;1482;51.398;7.128;2023-02-28T01:25:38;0.10;26.00
2945;DHT22;1482;51.398;7.128;2023-02-28T01:28:05;0.10;25.40
2945;DHT22;1482;51.398;7.128;2023-02-28T01:30:31;0.10;24.30
2945;DHT22;1482;51.398;7.128;2023-02-28T01:32:57;0.10;21.20
2945;DHT22;1482;51.398;7.128;2023-02-28T01:35:23;0.10;18.90
2945;DHT22;1482;51.398;7.128;2023-02-28T01:37:48;0.10;12.20
2945;DHT22;1482;51.398;7.128;2023-02-28T01:40:14;0.10;11.60
2945;DHT22;1482;51.398;7.128;2023-02-28T01:42:39;0.00;13.30
2945;DHT22;1482;51.398;7.128;2023-02-28T01:47:54;-0.10;19.40
2945;DHT22;1482;51.398;7.128;2023-02-28T01:50:23;-0.10;17.40
2945;DHT22;1482;51.398;7.128;2023-02-28T01:52:50;-0.10;15.20
2945;DHT22;1482;51.398;7.128;2023-02-28T01:55:19;-0.20;16.10
2945;DHT22;1482;51.398;7.128;2023-02-28T01:57:51;-0.30;24.90
2945;DHT22;1482;51.398;7.128;2023-02-28T02:00:21;-0.30;28.70
2945;DHT22;1482;51.398;7.128;2023-02-28T02:02:49;-0.20;24.20
2945;DHT22;1482;51.398;7.128;2023-02-28T02:05:23;-0.30;25.30
2945;DHT22;1482;51.398;7.128;2023-02-28T02:07:52;-0.30;24.30
2945;DHT22;1482;51.398;7.128;2023-02-28T02:10:27;-0.30;14.90
2945;DHT22;1482;51.398;7.128;2023-02-28T02:24:39;-0.40;15.10
2945;DHT22;1482;51.398;7.128;2023-02-28T02:30:43;-0.50;22.20
2945;DHT22;1482;51.398;7.128;2023-02-28T02:38:50;-0.60;45.40
2945;DHT22;1482;51.398;7.128;2023-02-28T02:46:39;-0.70;59.80
2945;DHT22;1482;51.398;7.128;2023-02-28T02:49:09;-0.80;57.20
2945;DHT22;1482;51.398;7.128;2023-02-28T02:51:38;-0.90;90.50
2945;DHT22;1482;51.398;7.128;2023-02-28T02:54:08;-0.90;99.90
2945;DHT22;1482;51.398;7.128;2023-02-28T02:56:36;-0.90;99.90
2945;DHT22;1482;51.398;7.128;2023-02-28T02:59:07;-0.90;99.90
2945;DHT22;1482;51.398;7.128;2023-02-28T03:01:35;-0.90;99.90
2945;DHT22;1482;51.398;7.128;2023-02-28T03:04:04;-1.00;99.90
2945;DHT22;1482;51.398;7.128;2023-02-28T03:06:30;-1.00;99.90
2945;DHT22;1482;51.398;7.128;2023-02-28T03:08:56;-1.10;99.90
2945;DHT22;1482;51.398;7.128;2023-02-28T03:11:21;-1.00;99.90
2945;DHT22;1482;51.398;7.128;2023-02-28T03:13:55;-1.10;99.90
2945;DHT22;1482;51.398;7.128;2023-02-28T03:24:27;-1.00;99.90
2945;DHT22;1482;51.398;7.128;2023-02-28T03:27:06;-1.10;99.90
2945;DHT22;1482;51.398;7.128;2023-02-28T03:29:37;-1.10;99.90
2945;DHT22;1482;51.398;7.128;2023-02-28T03:32:11;-1.20;99.90
2945;DHT22;1482;51.398;7.128;2023-02-28T03:34:45;-1.20;99.90
2945;DHT22;1482;51.398;7.128;2023-02-28T03:37:18;-1.20;99.90
2945;DHT22;1482;51.398;7.128;2023-02-28T03:39:49;-1.20;99.90
2945;DHT22;1482;51.398;7.128;2023-02-28T03:42:22;-1.20;99.90
2945;DHT22;1482;51.398;7.128;2023-02-28T03:44:56;-1.30;99.90
2945;DHT22;1482;51.398;7.128;2023-02-28T03:47:41;-1.30;99.90
2945;DHT22;1482;51.398;7.128;2023-02-28T03:50:15;-1.30;99.90
2945;DHT22;1482;51.398;7.128;2023-02-28T03:52:52;-1.20;99.90
2945;DHT22;1482;51.398;7.128;2023-02-28T03:55:20;-1.30;99.90
2945;DHT22;1482;51.398;7.128;2023-02-28T03:57:55;-1.30;99.90
2945;DHT22;1482;51.398;7.128;2023-02-28T04:02:54;-1.30;99.90
2945;DHT22;1482;51.398;7.128;2023-02-28T04:05:20;-1.30;99.90
2945;DHT22;1482;51.398;7.128;2023-02-28T04:07:46;-1.40;99.90
2945;DHT22;1482;51.398;7.128;2023-02-28T04:10:12;-1.30;99.90
2945;DHT22;1482;51.398;7.128;2023-02-28T04:12:38;-1.30;99.90
2945;DHT22;1482;51.398;7.128;2023-02-28T04:15:04;-1.30;99.90
2945;DHT22;1482;51.398;7.128;2023-02-28T04:17:30;-1.30;99.90
2945;DHT22;1482;51.398;7.128;2023-02-28T04:19:55;-1.30;99.90
2945;DHT22;1482;51.398;7.128;2023-02-28T04:22:22;-1.30;99.90
2945;DHT22;1482;51.398;7.128;2023-02-28T04:24:51;-1.30;99.90
2945;DHT22;1482;51.398;7.128;2023-02-28T04:27:16;-1.30;99.90
2945;DHT22;1482;51.398;7.128;2023-02-28T04:29:42;-1.30;99.90
2945;DHT22;1482;51.398;7.128;2023-02-28T04:32:10;-1.40;99.90
2945;DHT22;1482;51.398;7.128;2023-02-28T04:34:35;-1.40;99.90
2945;DHT22;1482;51.398;7.128;2023-02-28T04:37:01;-1.40;99.90
2945;DHT22;1482;51.398;7.128;2023-02-28T04:39:28;-1.40;99.90
2945;DHT22;1482;51.398;7.128;2023-02-28T04:41:55;-1.50;99.90
2945;DHT22;1482;51.398;7.128;2023-02-28T04:44:21;-1.50;99.90
2945;DHT22;1482;51.398;7.128;2023-02-28T04:46:48;-1.50;99.90
2945;DHT22;1482;51.398;7.128;2023-02-28T04:49:14;-1.40;99.90
2945;DHT22;1482;51.398;7.128;2023-02-28T04:51:40;-1.50;99.90
2945;DHT22;1482;51.398;7.128;2023-02-28T04:54:06;-1.40;99.90
2945;DHT22;1482;51.398;7.128;2023-02-28T04:56:32;-1.40;99.90
2945;DHT22;1482;51.398;7.128;2023-02-28T04:58:57;-1.40;99.90
2945;DHT22;1482;51.398;7.128;2023-02-28T05:03:49;-1.50;99.90
2945;DHT22;1482;51.398;7.128;2023-02-28T05:06:16;-1.50;99.90
2945;DHT22;1482;51.398;7.128;2023-02-28T05:08:41;-1.40;99.90
2945;DHT22;1482;51.398;7.128;2023-02-28T05:11:14;-1.50;99.90
2945;DHT22;1482;51.398;7.128;2023-02-28T05:13:40;-1.60;99.90
2945;DHT22;1482;51.398;7.128;2023-02-28T05:16:06;-1.60;99.90
2945;DHT22;1482;51.398;7.128;2023-02-28T05:18:32;-1.50;99.90
2945;DHT22;1482;51.398;7.128;2023-02-28T05:20:57;-1.50;99.90
2945;DHT22;1482;51.398;7.128;2023-02-28T05:23:23;-1.50;99.90
2945;DHT22;1482;51.398;7.128;2023-02-28T05:25:48;-1.50;99.90
2945;DHT22;1482;51.398;7.128;2023-02-28T05:28:14;-1.60;99.90
2945;DHT22;1482;51.398;7.128;2023-02-28T05:30:40;-1.70;99.90
2945;DHT22;1482;51.398;7.128;2023-02-28T05:33:05;-1.80;99.90
2945;DHT22;1482;51.398;7.128;2023-02-28T05:35:31;-1.80;99.90
2945;DHT22;1482;51.398;7.128;2023-02-28T05:37:57;-1.80;99.90
2945;DHT22;1482;51.398;7.128;2023-02-28T05:40:22;-1.80;99.90
2945;DHT22;1482;51.398;7.128;2023-02-28T05:42:50;-1.80;99.90
2945;DHT22;1482;51.398;7.128;2023-02-28T05:45:15;-1.80;99.90
2945;DHT22;1482;51.398;7.128;2023-02-28T05:47:42;-1.70;99.90
2945;DHT22;1482;51.398;7.128;2023-02-28T05:50:08;-1.70;99.90
2945;DHT22;1482;51.398;7.128;2023-02-28T05:52:35;-1.70;99.90
2945;DHT22;1482;51.398;7.128;2023-02-28T05:55:01;-1.80;99.90
2945;DHT22;1482;51.398;7.128;2023-02-28T05:57:27;-1.70;99.90
2945;DHT22;1482;51.398;7.128;2023-02-28T05:59:52;-1.70;99.90
2945;DHT22;1482;51.398;7.128;2023-02-28T06:02:18;-1.80;99.90
2945;DHT22;1482;51.398;7.128;2023-02-28T06:04:44;-1.80;99.90
2945;DHT22;1482;51.398;7.128;2023-02-28T06:07:10;-1.80;99.90
2945;DHT22;1482;51.398;7.128;2023-02-28T06:09:36;-1.80;99.90
2945;DHT22;1482;51.398;7.128;2023-02-28T06:12:04;-1.70;99.90
2945;DHT22;1482;51.398;7.128;2023-02-28T06:14:31;-1.80;99.90
2945;DHT22;1482;51.398;7.128;2023-02-28T06:16:58;-1.80;99.90
2945;DHT22;1482;51.398;7.128;2023-02-28T06:19:24;-1.70;99.90
2945;DHT22;1482;51.398;7.128;2023-02-28T06:21:53;-1.80;99.90
2945;DHT22;1482;51.398;7.128;2023-02-28T06:24:20;-1.70;99.90
2945;DHT22;1482;51.398;7.128;2023-02-28T06:26:46;-1.70;99.90
2945;DHT22;1482;51.398;7.128;2023-02-28T06:29:11;-1.70;99.90
2945;DHT22;1482;51.398;7.128;2023-02-28T06:31:37;-1.70;99.90
2945;DHT22;1482;51.398;7.128;2023-02-28T06:34:04;-1.70;99.90
2945;DHT22;1482;51.398;7.128;2023-02-28T06:36:30;-1.60;99.90
2945;DHT22;1482;51.398;7.128;2023-02-28T06:38:56;-1.50;99.90
2945;DHT22;1482;51.398;7.128;2023-02-28T06:41:25;-1.50;93.20
2945;DHT22;1482;51.398;7.128;2023-02-28T06:43:51;-1.40;83.30
2945;DHT22;1482;51.398;7.128;2023-02-28T06:46:17;-1.50;66.40
2945;DHT22;1482;51.398;7.128;2023-02-28T06:48:44;-1.50;72.80
2945;DHT22;1482;51.398;7.128;2023-02-28T06:51:15;-1.40;76.80
2945;DHT22;1482;51.398;7.128;2023-02-28T06:53:42;-1.30;76.70
2945;DHT22;1482;51.398;7.128;2023-02-28T06:56:10;-1.20;60.80
2945;DHT22;1482;51.398;7.128;2023-02-28T06:58:37;-1.10;66.20
2945;DHT22;1482;51.398;7.128;2023-02-28T07:01:03;-1.00;64.20
2945;DHT22;1482;51.398;7.128;2023-02-28T07:03:29;-1.00;62.50
2945;DHT22;1482;51.398;7.128;2023-02-28T07:05:55;-0.80;63.30
2945;DHT22;1482;51.398;7.128;2023-02-28T07:08:22;-0.80;48.10
2945;DHT22;1482;51.398;7.128;2023-02-28T07:10:51;-0.70;46.40
2945;DHT22;1482;51.398;7.128;2023-02-28T07:13:17;-0.60;46.50
2945;DHT22;1482;51.398;7.128;2023-02-28T07:15:42;-0.40;28.80
2945;DHT22;1482;51.398;7.128;2023-02-28T07:18:08;-0.20;26.40
2945;DHT22;1482;51.398;7.128;2023-02-28T07:20:33;0.10;18.40
2945;DHT22;1482;51.398;7.128;2023-02-28T07:22:59;0.50;1.00
2945;DHT22;1482;51.398;7.128;2023-02-28T07:25:26;1.80;1.00
2945;DHT22;1482;51.398;7.128;2023-02-28T07:27:53;4.50;1.00
2945;DHT22;1482;51.398;7.128;2023-02-28T07:30:19;7.80;1.00
2945;DHT22;1482;51.398;7.128;2023-02-28T07:32:45;11.10;1.00
2945;DHT22;1482;51.398;7.128;2023-02-28T07:35:11;14.10;1.00
2945;DHT22;1482;51.398;7.128;2023-02-28T07:37:36;15.90;1.00
2945;DHT22;1482;51.398;7.128;2023-02-28T07:40:04;16.80;1.00
2945;DHT22;1482;51.398;7.128;2023-02-28T07:42:32;17.60;1.00
2945;DHT22;1482;51.398;7.128;2023-02-28T07:44:57;18.80;1.00
2945;DHT22;1482;51.398;7.128;2023-02-28T07:47:24;20.10;1.00
2945;DHT22;1482;51.398;7.128;2023-02-28T07:49:50;20.90;1.00
2945;DHT22;1482;51.398;7.128;2023-02-28T07:52:15;22.00;1.00
2945;DHT22;1482;51.398;7.128;2023-02-28T07:54:41;22.80;1.00
2945;DHT22;1482;51.398;7.128;2023-02-28T07:57:06;22.80;1.00
2945;DHT22;1482;51.398;7.128;2023-02-28T07:59:32;22.60;1.00
2945;DHT22;1482;51.398;7.128;2023-02-28T08:01:58;23.00;1.00
2945;DHT22;1482;51.398;7.128;2023-02-28T08:04:24;23.50;1.00
2945;DHT22;1482;51.398;7.128;2023-02-28T08:06:50;24.20;1.00
2945;DHT22;1482;51.398;7.128;2023-02-28T08:09:17;24.50;1.00
2945;DHT22;1482;51.398;7.128;2023-02-28T08:11:42;23.80;1.00
2945;DHT22;1482;51.398;7.128;2023-02-28T08:14:08;23.60;1.00
2945;DHT22;1482;51.398;7.128;2023-02-28T08:16:34;24.70;1.00
2945;DHT22;1482;51.398;7.128;2023-02-28T08:18:59;25.60;1.00
2945;DHT22;1482;51.398;7.128;2023-02-28T08:21:25;24.40;1.00
2945;DHT22;1482;51.398;7.128;2023-02-28T08:23:51;23.30;1.00
2945;DHT22;1482;51.398;7.128;2023-02-28T08:26:17;24.40;1.00
2945;DHT22;1482;51.398;7.128;2023-02-28T08:28:43;25.20;1.00
2945;DHT22;1482;51.398;7.128;2023-02-28T08:31:11;25.30;1.00
2945;DHT22;1482;51.398;7.128;2023-02-28T08:33:37;24.20;1.00
2945;DHT22;1482;51.398;7.128;2023-02-28T08:36:04;23.30;1.00
2945;DHT22;1482;51.398;7.128;2023-02-28T08:38:30;22.30;1.00
2945;DHT22;1482;51.398;7.128;2023-02-28T08:41:01;20.60;1.00
2945;DHT22;1482;51.398;7.128;2023-02-28T08:43:28;17.50;1.00
2945;DHT22;1482;51.398;7.128;2023-02-28T08:45:54;16.60;1.00
2945;DHT22;1482;51.398;7.128;2023-02-28T08:48:23;16.80;1.00
2945;DHT22;1482;51.398;7.128;2023-02-28T08:51:03;15.60;1.00
2945;DHT22;1482;51.398;7.128;2023-02-28T08:53:29;15.50;1.00
2945;DHT22;1482;51.398;7.128;2023-02-28T08:58:23;13.50;1.00
2945;DHT22;1482;51.398;7.128;2023-02-28T09:00:49;15.20;1.00
2945;DHT22;1482;51.398;7.128;2023-02-28T09:03:15;17.20;1.00
2945;DHT22;1482;51.398;7.128;2023-02-28T09:05:40;17.50;1.00
2945;DHT22;1482;51.398;7.128;2023-02-28T09:08:06;17.60;1.00
2945;DHT22;1482;51.398;7.128;2023-02-28T09:10:31;19.10;1.00
2945;DHT22;1482;51.398;7.128;2023-02-28T09:12:57;19.80;1.00
2945;DHT22;1482;51.398;7.128;2023-02-28T09:15:23;21.80;1.00
2945;DHT22;1482;51.398;7.128;2023-02-28T09:17:48;22.50;1.00
2945;DHT22;1482;51.398;7.128;2023-02-28T09:20:14;22.70;1.00
2945;DHT22;1482;51.398;7.128;2023-02-28T09:22:39;23.30;1.00
2945;DHT22;1482;51.398;7.128;2023-02-28T09:25:05;23.30;1.00
2945;DHT22;1482;51.398;7.128;2023-02-28T09:27:30;20.40;1.00
2945;DHT22;1482;51.398;7.128;2023-02-28T09:29:56;17.90;1.00
2945;DHT22;1482;51.398;7.128;2023-02-28T09:32:21;15.70;1.00
2945;DHT22;1482;51.398;7.128;2023-02-28T09:34:47;13.60;1.00
2945;DHT22;1482;51.398;7.128;2023-02-28T09:37:12;13.00;1.00
2945;DHT22;1482;51.398;7.128;2023-02-28T09:39:38;13.30;1.00
2945;DHT22;1482;51.398;7.128;2023-02-28T09:42:04;12.90;1.00
2945;DHT22;1482;51.398;7.128;2023-02-28T09:44:42;13.90;1.00
2945;DHT22;1482;51.398;7.128;2023-02-28T09:47:32;13.60;1.00
2945;DHT22;1482;51.398;7.128;2023-02-28T09:50:22;14.60;1.00
2945;DHT22;1482;51.398;7.128;2023-02-28T09:52:49;13.70;1.00
2945;DHT22;1482;51.398;7.128;2023-02-28T09:57:50;11.00;1.00
2945;DHT22;1482;51.398;7.128;2023-02-28T10:00:39;11.00;1.00
2945;DHT22;1482;51.398;7.128;2023-02-28T10:03:29;11.10;1.00
2945;DHT22;1482;51.398;7.128;2023-02-28T10:06:12;11.10;1.00
2945;DHT22;1482;51.398;7.128;2023-02-28T10:12:05;12.90;1.00
2945;DHT22;1482;51.398;7.128;2023-02-28T10:14:35;12.20;1.00
2945;DHT22;1482;51.398;7.128;2023-02-28T10:17:08;12.40;1.00
2945;DHT22;1482;51.398;7.128;2023-02-28T10:20:04;11.70;1.00
2945;DHT22;1482;51.398;7.128;2023-02-28T10:22:45;10.50;1.00
2945;DHT22;1482;51.398;7.128;2023-02-28T10:25:19;9.10;1.00
2945;DHT22;1482;51.398;7.128;2023-02-28T10:27:45;7.40;1.00
2945;DHT22;1482;51.398;7.128;2023-02-28T10:30:11;6.90;1.00
2945;DHT22;1482;51.398;7.128;2023-02-28T10:32:40;6.10;1.00
2945;DHT22;1482;51.398;7.128;2023-02-28T10:37:37;5.70;1.00
2945;DHT22;1482;51.398;7.128;2023-02-28T10:40:05;5.60;1.00
2945;DHT22;1482;51.398;7.128;2023-02-28T10:42:31;5.40;1.00
2945;DHT22;1482;51.398;7.128;2023-02-28T10:45:16;5.50;1.00
2945;DHT22;1482;51.398;7.128;2023-02-28T10:50:42;5.20;1.00
2945;DHT22;1482;51.398;7.128;2023-02-28T11:01:41;5.50;1.00
2945;DHT22;1482;51.398;7.128;2023-02-28T11:04:18;5.50;1.00
2945;DHT22;1482;51.398;7.128;2023-02-28T11:06:45;5.60;1.00
2945;DHT22;1482;51.398;7.128;2023-02-28T11:09:23;5.60;1.00
2945;DHT22;1482;51.398;7.128;2023-02-28T11:11:49;5.60;1.00
2945;DHT22;1482;51.398;7.128;2023-02-28T11:15:01;5.30;1.00
2945;DHT22;1482;51.398;7.128;2023-02-28T11:17:30;5.00;1.00
2945;DHT22;1482;51.398;7.128;2023-02-28T11:20:04;4.70;1.00
2945;DHT22;1482;51.398;7.128;2023-02-28T11:22:36;4.90;1.00
2945;DHT22;1482;51.398;7.128;2023-02-28T11:25:09;4.60;1.00
2945;DHT22;1482;51.398;7.128;2023-02-28T11:27:52;4.60;1.00
2945;DHT22;1482;51.398;7.128;2023-02-28T11:32:50;4.80;1.00
2945;DHT22;1482;51.398;7.128;2023-02-28T11:35:38;4.90;1.00
2945;DHT22;1482;51.398;7.128;2023-02-28T11:38:09;4.80;1.00
2945;DHT22;1482;51.398;7.128;2023-02-28T11:41:03;4.90;1.00
2945;DHT22;1482;51.398;7.128;2023-02-28T11:46:36;4.50;1.00
2945;DHT22;1482;51.398;7.128;2023-02-28T11:51:49;4.70;1.00
2945;DHT22;1482;51.398;7.128;2023-02-28T11:57:20;5.10;1.00
2945;DHT22;1482;51.398;7.128;2023-02-28T12:06:18;5.90;1.00
2945;DHT22;1482;51.398;7.128;2023-02-28T12:12:37;6.20;1.00
2945;DHT22;1482;51.398;7.128;2023-02-28T12:17:49;6.30;1.00
2945;DHT22;1482;51.398;7.128;2023-02-28T12:28:14;6.30;1.00
2945;DHT22;1482;51.398;7.128;2023-02-28T12:30:50;6.40;1.00
2945;DHT22;1482;51.398;7.128;2023-02-28T12:33:21;6.50;1.00
2945;DHT22;1482;51.398;7.128;2023-02-28T12:35:59;6.40;1.00
2945;DHT22;1482;51.398;7.128;2023-02-28T12:41:00;6.30;1.00
2945;DHT22;1482;51.398;7.128;2023-02-28T12:43:34;6.40;1.00
2945;DHT22;1482;51.398;7.128;2023-02-28T12:46:19;6.10;1.00
2945;DHT22;1482;51.398;7.128;2023-02-28T12:48:50;6.40;1.00
2945;DHT22;1482;51.398;7.128;2023-02-28T12:51:18;6.60;1.00
2945;DHT22;1482;51.398;7.128;2023-02-28T12:54:10;6.40;1.00
2945;DHT22;1482;51.398;7.128;2023-02-28T12:56:42;6.30;1.00
2945;DHT22;1482;51.398;7.128;2023-02-28T13:00:19;6.30;1.00
2945;DHT22;1482;51.398;7.128;2023-02-28T13:07:52;6.80;1.00
2945;DHT22;1482;51.398;7.128;2023-02-28T13:10:22;7.00;1.00
2945;DHT22;1482;51.398;7.128;2023-02-28T13:12:52;6.80;1.00
2945;DHT22;1482;51.398;7.128;2023-02-28T13:15:19;6.90;1.00
2945;DHT22;1482;51.398;7.128;2023-02-28T13:17:58;7.00;1.00
2945;DHT22;1482;51.398;7.128;2023-02-28T13:20:33;6.80;1.00
2945;DHT22;1482;51.398;7.128;2023-02-28T13:23:00;7.10;1.00
2945;DHT22;1482;51.398;7.128;2023-02-28T13:31:14;6.80;1.00
2945;DHT22;1482;51.398;7.128;2023-02-28T13:36:31;6.40;1.00
2945;DHT22;1482;51.398;7.128;2023-02-28T13:39:02;6.70;1.00
2945;DHT22;1482;51.398;7.128;2023-02-28T13:46:32;5.80;1.00
2945;DHT22;1482;51.398;7.128;2023-02-28T13:49:24;6.20;1.00
2945;DHT22;1482;51.398;7.128;2023-02-28T13:51:50;6.60;1.00
2945;DHT22;1482;51.398;7.128;2023-02-28T14:05:32;6.40;1.00
2945;DHT22;1482;51.398;7.128;2023-02-28T14:08:21;6.00;1.00
2945;DHT22;1482;51.398;7.128;2023-02-28T14:11:02;5.90;1.00
2945;DHT22;1482;51.398;7.128;2023-02-28T14:13:40;6.00;1.00
2945;DHT22;1482;51.398;7.128;2023-02-28T14:16:25;6.00;1.00
2945;DHT22;1482;51.398;7.128;2023-02-28T14:18:59;6.10;1.00
2945;DHT22;1482;51.398;7.128;2023-02-28T14:21:33;6.30;1.00
2945;DHT22;1482;51.398;7.128;2023-02-28T14:37:42;6.50;1.00
2945;DHT22;1482;51.398;7.128;2023-02-28T14:40:25;6.30;1.00
2945;DHT22;1482;51.398;7.128;2023-02-28T14:43:00;6.30;1.00
2945;DHT22;1482;51.398;7.128;2023-02-28T14:45:29;6.30;1.00
2945;DHT22;1482;51.398;7.128;2023-02-28T14:47:56;6.10;1.00
2945;DHT22;1482;51.398;7.128;2023-02-28T14:50:31;6.10;1.00
2945;DHT22;1482;51.398;7.128;2023-02-28T14:52:58;6.00;1.00
2945;DHT22;1482;51.398;7.128;2023-02-28T14:55:28;5.90;1.00
2945;DHT22;1482;51.398;7.128;2023-02-28T14:58:03;5.90;1.00
2945;DHT22;1482;51.398;7.128;2023-02-28T15:00:39;6.00;1.00
2945;DHT22;1482;51.398;7.128;2023-02-28T15:03:35;6.10;1.00
2945;DHT22;1482;51.398;7.128;2023-02-28T15:06:06;6.30;1.00
2945;DHT22;1482;51.398;7.128;2023-02-28T15:08:37;6.30;1.00
2945;DHT22;1482;51.398;7.128;2023-02-28T15:11:16;6.30;1.00
2945;DHT22;1482;51.398;7.128;2023-02-28T15:13:51;6.10;1.00
2945;DHT22;1482;51.398;7.128;2023-02-28T15:16:39;6.20;1.00
2945;DHT22;1482;51.398;7.128;2023-02-28T15:21:49;6.10;1.00
2945;DHT22;1482;51.398;7.128;2023-02-28T15:24:37;6.00;1.00
2945;DHT22;1482;51.398;7.128;2023-02-28T15:27:05;6.00;1.00
2945;DHT22;1482;51.398;7.128;2023-02-28T15:29:41;5.90;1.00
2945;DHT22;1482;51.398;7.128;2023-02-28T15:32:07;5.80;1.00
2945;DHT22;1482;51.398;7.128;2023-02-28T15:34:43;5.70;1.00
2945;DHT22;1482;51.398;7.128;2023-02-28T15:37:38;5.60;1.00
2945;DHT22;1482;51.398;7.128;2023-02-28T15:42:38;5.40;1.00
2945;DHT22;1482;51.398;7.128;2023-02-28T15:45:04;5.40;1.00
2945;DHT22;1482;51.398;7.128;2023-02-28T15:47:30;5.00;1.00
2945;DHT22;1482;51.398;7.128;2023-02-28T15:49:57;4.90;1.00
2945;DHT22;1482;51.398;7.128;2023-02-28T15:52:39;5.00;1.00
2945;DHT22;1482;51.398;7.128;2023-02-28T15:55:19;4.90;1.00
2945;DHT22;1482;51.398;7.128;2023-02-28T15:57:49;4.90;1.00
2945;DHT22;1482;51.398;7.128;2023-02-28T16:00:19;4.80;1.00
2945;DHT22;1482;51.398;7.128;2023-02-28T16:02:45;4.80;1.00
2945;DHT22;1482;51.398;7.128;2023-02-28T16:07:41;4.60;1.00
2945;DHT22;1482;51.398;7.128;2023-02-28T16:10:09;4.40;1.00
2945;DHT22;1482;51.398;7.128;2023-02-28T16:12:37;4.50;1.00
2945;DHT22;1482;51.398;7.128;2023-02-28T16:15:20;4.50;1.00
2945;DHT22;1482;51.398;7.128;2023-02-28T16:17:46;4.50;1.00
2945;DHT22;1482;51.398;7.128;2023-02-28T16:20:18;4.50;1.00
2945;DHT22;1482;51.398;7.128;2023-02-28T16:22:44;4.60;1.00
2945;DHT22;1482;51.398;7.128;2023-02-28T16:25:36;4.50;1.00
2945;DHT22;1482;51.398;7.128;2023-02-28T16:28:01;4.40;1.00
2945;DHT22;1482;51.398;7.128;2023-02-28T16:30:28;4.40;1.00
2945;DHT22;1482;51.398;7.128;2023-02-28T16:32:56;4.30;1.00
2945;DHT22;1482;51.398;7.128;2023-02-28T16:35:23;4.30;1.00
2945;DHT22;1482;51.398;7.128;2023-02-28T16:37:50;4.40;1.00
2945;DHT22;1482;51.398;7.128;2023-02-28T16:40:18;4.40;1.00
2945;DHT22;1482;51.398;7.128;2023-02-28T16:42:47;4.20;1.00
2945;DHT22;1482;51.398;7.128;2023-02-28T16:45:20;4.10;1.00
2945;DHT22;1482;51.398;7.128;2023-02-28T16:47:47;4.20;1.00
2945;DHT22;1482;51.398;7.128;2023-02-28T16:50:15;4.10;1.00
2945;DHT22;1482;51.398;7.128;2023-02-28T16:52:41;4.10;1.00
2945;DHT22;1482;51.398;7.128;2023-02-28T16:55:08;4.20;1.00
2945;DHT22;1482;51.398;7.128;2023-02-28T16:57:33;4.00;1.00
2945;DHT22;1482;51.398;7.128;2023-02-28T16:59:59;4.10;1.00
2945;DHT22;1482;51.398;7.128;2023-02-28T17:02:24;4.10;1.00
2945;DHT22;1482;51.398;7.128;2023-02-28T17:04:50;4.00;1.00
2945;DHT22;1482;51.398;7.128;2023-02-28T17:07:16;3.90;1.00
2945;DHT22;1482;51.398;7.128;2023-02-28T17:09:43;4.00;1.00
2945;DHT22;1482;51.398;7.128;2023-02-28T17:12:09;3.90;1.00
2945;DHT22;1482;51.398;7.128;2023-02-28T17:14:36;3.90;1.00
2945;DHT22;1482;51.398;7.128;2023-02-28T17:17:02;3.90;1.00
2945;DHT22;1482;51.398;7.128;2023-02-28T17:19:29;3.80;1.00
2945;DHT22;1482;51.398;7.128;2023-02-28T17:21:54;3.70;1.00
2945;DHT22;1482;51.398;7.128;2023-02-28T17:24:20;3.70;1.00
2945;DHT22;1482;51.398;7.128;2023-02-28T17:26:45;3.60;1.00
2945;DHT22;1482;51.398;7.128;2023-02-28T17:29:20;3.60;1.00
2945;DHT22;1482;51.398;7.128;2023-02-28T17:31:47;3.50;1.00
2945;DHT22;1482;51.398;7.128;2023-02-28T17:34:13;3.50;1.00
2945;DHT22;1482;51.398;7.128;2023-02-28T17:36:47;3.50;1.00
2945;DHT22;1482;51.398;7.128;2023-02-28T17:39:14;3.50;1.00
2945;DHT22;1482;51.398;7.128;2023-02-28T17:41:41;3.40;1.00
2945;DHT22;1482;51.398;7.128;2023-02-28T17:44:07;3.40;1.00
2945;DHT22;1482;51.398;7.128;2023-02-28T17:46:34;3.30;1.00
2945;DHT22;1482;51.398;7.128;2023-02-28T17:48:59;3.40;1.00
2945;DHT22;1482;51.398;7.128;2023-02-28T17:51:25;3.40;1.00
2945;DHT22;1482;51.398;7.128;2023-02-28T17:53:52;3.30;1.00
2945;DHT22;1482;51.398;7.128;2023-02-28T17:56:21;3.30;1.00
2945;DHT22;1482;51.398;7.128;2023-02-28T17:58:48;3.30;1.00
2945;DHT22;1482;51.398;7.128;2023-02-28T18:01:14;3.30;1.00
2945;DHT22;1482;51.398;7.128;2023-02-28T18:03:40;3.30;1.00
2945;DHT22;1482;51.398;7.128;2023-02-28T18:06:08;3.20;1.00
2945;DHT22;1482;51.398;7.128;2023-02-28T18:08:38;3.10;1.00
2945;DHT22;1482;51.398;7.128;2023-02-28T18:11:04;3.20;1.00
2945;DHT22;1482;51.398;7.128;2023-02-28T18:13:29;3.10;1.00
2945;DHT22;1482;51.398;7.128;2023-02-28T18:15:55;3.10;1.00
2945;DHT22;1482;51.398;7.128;2023-02-28T18:18:20;3.00;1.00
2945;DHT22;1482;51.398;7.128;2023-02-28T18:20:46;3.00;1.00
2945;DHT22;1482;51.398;7.128;2023-02-28T18:23:15;3.10;1.00
2945;DHT22;1482;51.398;7.128;2023-02-28T18:25:41;3.00;1.00
2945;DHT22;1482;51.398;7.128;2023-02-28T18:28:07;2.90;1.00
2945;DHT22;1482;51.398;7.128;2023-02-28T18:30:35;2.90;1.00
2945;DHT22;1482;51.398;7.128;2023-02-28T18:33:02;2.90;1.00
2945;DHT22;1482;51.398;7.128;2023-02-28T18:35:28;2.90;1.00
2945;DHT22;1482;51.398;7.128;2023-02-28T18:38:13;2.80;1.00
2945;DHT22;1482;51.398;7.128;2023-02-28T18:40:40;2.70;1.00
2945;DHT22;1482;51.398;7.128;2023-02-28T18:43:06;2.70;1.00
2945;DHT22;1482;51.398;7.128;2023-02-28T18:45:35;2.70;1.00
2945;DHT22;1482;51.398;7.128;2023-02-28T18:48:00;2.70;1.00
2945;DHT22;1482;51.398;7.128;2023-02-28T18:50:26;2.80;1.00
2945;DHT22;1482;51.398;7.128;2023-02-28T18:52:51;2.90;1.00
2945;DHT22;1482;51.398;7.128;2023-02-28T18:55:18;2.80;1.00
2945;DHT22;1482;51.398;7.128;2023-02-28T18:57:47;2.80;1.00
2945;DHT22;1482;51.398;7.128;2023-02-28T19:00:14;2.90;1.00
2945;DHT22;1482;51.398;7.128;2023-02-28T19:02:40;2.80;1.00
2945;DHT22;1482;51.398;7.128;2023-02-28T19:05:05;2.70;1.00